PST,Max TemperatureF,Mean TemperatureF,Min TemperatureF,Max Dew PointF,MeanDew PointF,Min DewpointF,Max Humidity, Mean Humidity, Min Humidity, Max Sea Level PressureIn, Mean Sea Level PressureIn, Min Sea Level PressureIn, Max VisibilityMiles, Mean VisibilityMiles, Min VisibilityMiles, Max Wind SpeedMPH, Mean Wind SpeedMPH, Max Gust SpeedMPH,PrecipitationIn, CloudCover, Events, WindDirDegrees
2012-1-1,55,48,42,37,31,25,79,56,34,30.31,30.21,30.08,10,10,10,12,7,29,0.00,3,,25
2012-1-2,51,44,37,47,38,32,89,78,66,30.27,30.03,29.92,10,9,3,20,5,33,0.21,4,Rain,161
2012-1-3,55,48,42,47,43,39,93,84,66,30.31,30.26,30.17,10,10,10,7,1,,0.00,7,Rain,148
2012-1-4,53,48,42,48,45,40,97,89,77,30.21,30.12,30.04,10,7,2,14,4,22,0.00,6,Rain,147
2012-1-5,48,42,37,45,38,34,87,78,66,30.39,30.33,30.18,10,10,6,17,9,26,0.00,5,Rain,154
2012-1-6,42,40,37,37,35,33,97,85,70,30.39,30.34,30.29,10,9,2,6,2,,0.02,8,Rain,156
2012-1-7,46,42,37,41,38,36,100,88,73,30.48,30.42,30.35,10,10,9,8,1,,0.00,8,Rain,160
2012-1-8,50,44,37,42,39,37,100,87,68,30.41,30.33,30.25,10,8,1,6,2,,0.00,7,,151
2012-1-9,50,46,42,45,42,39,100,86,74,30.31,30.26,30.22,10,9,2,9,5,,0.00,8,Rain,192
2012-1-10,44,40,35,37,33,29,89,76,55,30.56,30.47,30.32,10,10,2,9,4,,0.00,5,Rain,326
2012-1-11,44,37,28,32,28,26,93,76,53,30.54,30.47,30.41,10,10,10,13,5,,0.00,0,,333
2012-1-12,43,36,28,30,27,24,89,74,47,30.41,30.35,30.31,10,10,10,5,2,,0.00,0,,280
2012-1-13,39,32,26,32,28,24,92,82,68,30.35,30.24,30.07,10,10,6,4,1,,0.00,1,,150
2012-1-14,41,38,34,39,33,28,100,84,67,30.05,29.97,29.90,10,7,2,15,4,31,0.19,7,Rain,162
2012-1-15,35,30,26,34,30,27,100,90,78,30.14,30.03,29.99,10,5,0,10,3,,0.12,7,Fog-Rain-Snow,114
2012-1-16,35,31,27,32,30,25,100,91,81,30.15,30.07,29.96,10,7,1,14,6,18,0.05,8,Rain-Snow,150
2012-1-17,37,34,30,36,32,27,100,89,70,29.99,29.90,29.82,10,8,1,12,7,21,0.15,7,Rain-Snow,164
2012-1-18,33,30,28,30,29,25,100,92,72,29.99,29.76,29.63,10,2,0,125,7,21,0.32,8,Fog-Rain-Snow,335
2012-1-19,30,29,28,30,27,26,96,91,86,29.80,29.71,29.59,10,5,1,,,,0.33,8,Rain-Snow,-1
2012-1-20,44,37,30,38,33,28,100,92,76,29.78,29.57,29.05,10,4,1,20,3,17,0.29,8,Rain,126
2012-1-21,45,42,39,40,35,32,96,79,71,29.92,29.57,29.05,10,10,5,22,10,32,0.13,5,Rain,158
2012-1-22,45,40,36,41,35,28,93,79,57,29.90,29.68,29.45,10,9,6,10,4,23,0.11,7,Rain,137
2012-1-23,48,40,33,36,33,31,93,79,56,30.06,29.98,29.87,10,10,8,6,3,,0.00,2,,158
2012-1-24,52,44,35,48,40,32,97,85,61,30.04,29.84,29.69,10,9,5,17,6,39,0.16,7,Rain,158
2012-1-25,48,44,41,42,38,34,93,78,61,30.29,30.17,29.98,10,9,5,20,9,33,0.22,7,Rain,165
2012-1-26,48,41,34,45,37,32,96,83,63,30.63,30.29,29.94,10,9,2,16,7,26,0.32,6,Rain,139
2012-1-27,43,36,30,32,30,28,100,84,62,30.65,30.59,30.53,10,9,7,8,2,,0.00,1,,232
2012-1-28,46,40,33,35,31,28,92,74,50,30.53,30.36,30.12,10,8,4,8,3,,0.00,6,,148
2012-1-29,50,44,39,48,45,35,100,94,79,30.08,29.91,29.79,10,6,1,9,4,,0.43,8,Rain,143
2012-1-30,48,46,45,46,41,38,100,80,66,30.09,30.03,29.84,10,10,5,13,8,23,0.00,8,Rain,165
2012-1-31,50,47,44,42,38,36,93,74,59,30.09,30.04,29.90,10,10,7,12,6,,0.04,6,Rain,169